Serafimovic, Russia
Current Conditions -  °F | °C
As of 12:00 PM on Saturday 01 Nov 2014 (Local Time) from URWW Reporting Station
Clear Clear  
Wind Chill: 42°   Ceiling: Unl
Heat Index: 45°   Visibility: 6mi
Dew Point: 28°   Wind: 4mph
Humidity: 53%   Direction: 170°S
Pressure: 29.83"   Gusts: NA
Location:  49.57°N, 42.75°E
Report Text: URWW 010900Z 17002MPS CAVOK 07/M02 Q1010 NOSIG RMK 29CLRD70
Loading
Personal Weather Stations






























Interactive Weather Map
Tropical Storm Tracking
New forecast layout! Learn more

10-Day Weather Forecast

Advertisements
Track Severe Weather on mobile